الصفحة الرئيسية
METAR-TAF:

METAR-TAF

مطار :

مطار كيب تاون

كيب تاون, جنوب أفريقيا

دائرة عرض: 33-59S, خط طول: 018-36E, ارتفاع: 42 متر

مراقبة الطقس الحالي

تاريخ ووقت الإصدار 31 دقيقة قبل الساعة 04:00UTC
ريح 2 عقدةمن اتجاهات متغيرة
درجة الحرارة 11°درجة مئوية
الرطوبة 94%
ضغط 1015 hPa
الرؤية 10 كم أو أكثر
الغيوم لا تقل 1500 م ولا وجود لمزنة ركامية السحاب الأسود

METAR: FACT 240400Z VRB02KT CAVOK 11/10 Q1015 NOSIG

زمن: 06:31 (04:31 UTC)

توقعات

تاريخ ووقت الإصدار 6ساعات و 31 دقيقة قبل الساعة 22:00UTC
التوقعات صالحة من24 الساعة 00 UTC إلى 25 الساعة 06 UTC
ريح 8 عقدة من الجنوب/الجنوب الغربي
الرؤية 10 كم أو أكثر
الغيوم لا تقل 1500 م ولا وجود لمزنة ركامية السحاب الأسود
أصبح
من 24 الساعة 22 UTC إلى 24 الساعة 24 UTC
غيوم مفككة على ارتفاع 2000 قدم
من 25 الساعة 0000 UTC
ريح 10 عقدة من الشمال/الشمال الغربي
الرؤية 10 كم أو أكثر
غيوم متفرقة على ارتفاع 1300 قدم
ملبد بالغيوم على ارتفاع 2000 قدم

TAF: FACT 232200Z 2400/2506 20008KT CAVOK BECMG 2422/2424 BKN020 FM250000 33010KT 9999 SCT013 OVC020 TX24/2412Z TN12/2405Z

أرصاد الطقس والتوقعات من أكثر من 4000 مطار (تقارير الطقس للمطار METAR والتنبؤ بالطقس بالمطارTAF).

المحطات المتاحة هي النقط الصفراء والحمراء على الخريطة.

حرك المؤشر فوق النقطة لمعرفة اسم المحطة.

ثم انقر لمعرفة أرصاد وتوقعات الطقس.

لتغيير الخارطة: اضغط على الأزرار الخضراء مع رمز الصليب الأسود للتكبير. على الزر الأخضر مع شرطة للتصغير، أو على الأسهم الخضراء للخرائط المجاورة.


METAR-TAF: